createdAt,value
2018-08-08T00:00:36.045Z,47.24
2018-08-08T00:01:36.068Z,47.24
2018-08-08T00:02:57.113Z,46.94
2018-08-08T00:03:36.120Z,47.04
2018-08-08T00:04:36.144Z,47.14
2018-08-08T00:05:36.169Z,46.94
2018-08-08T00:06:36.196Z,47.24
2018-08-08T00:07:36.222Z,47.14
2018-08-08T00:08:57.264Z,46.94
2018-08-08T00:09:36.273Z,47.14
2018-08-08T00:10:36.298Z,47.14
2018-08-08T00:11:36.324Z,47.14
2018-08-08T00:12:36.352Z,46.94
2018-08-08T00:13:36.376Z,47.33
2018-08-08T00:14:57.420Z,47.14
2018-08-08T00:15:36.427Z,47.04
2018-08-08T00:16:36.453Z,47.24
2018-08-08T00:17:36.479Z,47.24
2018-08-08T00:18:36.504Z,47.24
2018-08-08T00:19:36.532Z,47.33
2018-08-08T00:20:57.573Z,46.94
2018-08-08T00:21:36.584Z,47.33
2018-08-08T00:22:36.608Z,47.43
2018-08-08T00:23:36.633Z,47.14
2018-08-08T00:24:36.658Z,47.24
2018-08-08T00:25:36.689Z,47.33
2018-08-08T00:26:57.727Z,47.43
2018-08-08T00:27:36.736Z,47.43
2018-08-08T00:28:36.765Z,47.33
2018-08-08T00:29:36.791Z,47.62
2018-08-08T00:30:36.814Z,48.20
2018-08-08T00:31:36.838Z,48.20
2018-08-08T00:32:57.882Z,47.43
2018-08-08T00:33:36.890Z,47.62
2018-08-08T00:34:36.917Z,48.11
2018-08-08T00:35:36.941Z,48.11
2018-08-08T00:36:36.967Z,47.81
2018-08-08T00:37:36.997Z,48.20
2018-08-08T00:38:58.038Z,48.20
2018-08-08T00:39:37.058Z,48.01
2018-08-08T00:40:37.069Z,47.91
2018-08-08T00:41:37.104Z,48.01
2018-08-08T00:42:37.125Z,48.20
2018-08-08T00:43:37.147Z,48.20
2018-08-08T00:44:58.190Z,47.81
2018-08-08T00:45:37.205Z,47.81
2018-08-08T00:46:37.225Z,48.01
2018-08-08T00:47:37.249Z,48.01
2018-08-08T00:48:37.276Z,48.01
2018-08-08T00:49:37.302Z,48.01
2018-08-08T00:50:58.344Z,47.52
2018-08-08T00:51:37.352Z,47.81
2018-08-08T00:52:37.378Z,47.91
2018-08-08T00:53:37.405Z,47.72
2018-08-08T00:54:37.430Z,47.81
2018-08-08T00:55:37.454Z,48.11
2018-08-08T00:56:58.501Z,47.81
2018-08-08T00:57:37.507Z,48.47
2018-08-08T00:58:37.533Z,48.30
2018-08-08T00:59:37.557Z,48.37
2018-08-08T01:00:37.584Z,48.39
2018-08-08T01:01:37.618Z,48.59
2018-08-08T01:02:58.652Z,48.69
2018-08-08T01:03:37.660Z,48.76
2018-08-08T01:04:37.686Z,48.20
2018-08-08T01:05:37.712Z,48.66
2018-08-08T01:06:37.740Z,48.95
2018-08-08T01:07:37.763Z,48.69
2018-08-08T01:08:58.930Z,48.76
2018-08-08T01:09:37.861Z,48.57
2018-08-08T01:10:37.843Z,48.97
2018-08-08T01:11:37.867Z,48.76
2018-08-08T01:12:37.897Z,49.05
2018-08-08T01:13:37.918Z,48.86
2018-08-08T01:14:58.961Z,49.15
2018-08-08T01:15:37.968Z,49.63
2018-08-08T01:16:37.995Z,49.63
2018-08-08T01:17:38.020Z,48.97
2018-08-08T01:18:38.047Z,49.65
2018-08-08T01:19:38.071Z,49.56
2018-08-08T01:20:59.130Z,49.54
2018-08-08T01:21:38.122Z,49.54
2018-08-08T01:22:38.151Z,49.44
2018-08-08T01:23:38.174Z,50.04
2018-08-08T01:24:38.200Z,50.04
2018-08-08T01:25:38.232Z,50.04
2018-08-08T01:26:59.269Z,50.14
2018-08-08T01:27:38.276Z,50.04
2018-08-08T01:28:38.301Z,50.31
2018-08-08T01:29:38.328Z,49.95
2018-08-08T01:30:38.355Z,50.12
2018-08-08T01:31:38.379Z,50.50
2018-08-08T01:32:59.421Z,50.62
2018-08-08T01:33:38.435Z,50.50
2018-08-08T01:34:38.457Z,50.52
2018-08-08T01:35:38.481Z,50.52
2018-08-08T01:36:38.507Z,50.40
2018-08-08T01:37:38.532Z,50.52
2018-08-08T01:38:59.576Z,50.43
2018-08-08T01:39:38.586Z,50.82
2018-08-08T01:40:38.609Z,50.79
2018-08-08T01:41:38.635Z,50.92
2018-08-08T01:42:38.660Z,50.79
2018-08-08T01:43:38.686Z,50.92
2018-08-08T01:44:59.731Z,51.01
2018-08-08T01:45:38.779Z,50.89
2018-08-08T01:46:38.764Z,50.89
2018-08-08T01:47:38.812Z,51.08
2018-08-08T01:48:38.815Z,51.37
2018-08-08T01:49:38.846Z,51.66
2018-08-08T01:50:59.883Z,51.66
2018-08-08T01:51:38.892Z,51.56
2018-08-08T01:52:38.922Z,51.50
2018-08-08T01:53:38.943Z,51.68
2018-08-08T01:54:38.970Z,51.59
2018-08-08T01:55:38.997Z,51.95
2018-08-08T01:57:00.038Z,51.66
2018-08-08T01:57:39.046Z,51.66
2018-08-08T01:58:39.074Z,51.56
2018-08-08T01:59:39.097Z,51.56
2018-08-08T02:00:39.126Z,51.68
2018-08-08T02:01:39.148Z,51.86
2018-08-08T02:03:00.196Z,51.76
2018-08-08T02:03:39.199Z,51.47
2018-08-08T02:04:39.224Z,52.27
2018-08-08T02:05:39.253Z,51.86
2018-08-08T02:06:39.277Z,51.56
2018-08-08T02:07:39.304Z,51.86
2018-08-08T02:09:00.346Z,52.34
2018-08-08T02:09:39.359Z,52.14
2018-08-08T02:10:39.381Z,52.08
2018-08-08T02:11:39.413Z,52.24
2018-08-08T02:12:39.431Z,52.05
2018-08-08T02:13:39.456Z,52.24
2018-08-08T02:15:00.498Z,51.95
2018-08-08T02:15:39.508Z,52.05
2018-08-08T02:16:39.532Z,52.14
2018-08-08T02:17:39.561Z,52.05
2018-08-08T02:18:39.584Z,52.05
2018-08-08T02:19:39.609Z,52.05
2018-08-08T02:21:00.653Z,52.24
2018-08-08T02:21:39.667Z,52.53
2018-08-08T02:22:39.689Z,52.34
2018-08-08T02:23:39.712Z,52.14
2018-08-08T02:24:39.740Z,52.24
2018-08-08T02:25:39.763Z,52.24
2018-08-08T02:27:00.810Z,52.44
2018-08-08T02:27:39.814Z,52.24
2018-08-08T02:28:39.842Z,52.24
2018-08-08T02:29:39.866Z,52.34
2018-08-08T02:30:39.893Z,52.44
2018-08-08T02:31:39.917Z,52.63
2018-08-08T02:33:00.962Z,52.14
2018-08-08T02:33:39.969Z,52.34
2018-08-08T02:34:39.995Z,52.53
2018-08-08T02:35:40.026Z,52.73
2018-08-08T02:36:40.046Z,52.63
2018-08-08T02:37:40.074Z,52.63
2018-08-08T02:39:01.116Z,52.53
2018-08-08T02:39:40.123Z,52.34
2018-08-08T02:40:40.148Z,52.44
2018-08-08T02:41:40.175Z,52.34
2018-08-08T02:42:40.215Z,52.34
2018-08-08T02:43:40.231Z,52.34
2018-08-08T02:45:01.271Z,52.34
2018-08-08T02:45:40.276Z,52.73
2018-08-08T02:46:40.303Z,52.73
2018-08-08T02:47:40.329Z,52.44
2018-08-08T02:48:40.352Z,52.53
2018-08-08T02:49:40.379Z,52.82
2018-08-08T02:51:01.422Z,52.53
2018-08-08T02:51:40.431Z,52.73
2018-08-08T02:52:40.454Z,52.63
2018-08-08T02:53:40.490Z,52.92
2018-08-08T02:54:40.512Z,52.73
2018-08-08T02:55:40.536Z,52.63
2018-08-08T02:57:01.575Z,52.82
2018-08-08T02:57:40.584Z,52.92
2018-08-08T02:58:40.614Z,52.82
2018-08-08T02:59:40.640Z,52.92
2018-08-08T03:00:40.660Z,53.11
2018-08-08T03:01:40.698Z,52.44
2018-08-08T03:03:01.732Z,52.73
2018-08-08T03:03:40.737Z,52.82
2018-08-08T03:04:40.764Z,52.92
2018-08-08T03:05:40.788Z,52.73
2018-08-08T03:06:40.815Z,53.11
2018-08-08T03:07:40.839Z,53.02
2018-08-08T03:09:01.885Z,52.92
2018-08-08T03:09:40.890Z,53.21
2018-08-08T03:10:40.916Z,53.69
2018-08-08T03:11:40.947Z,53.79
2018-08-08T03:12:40.966Z,53.69
2018-08-08T03:13:40.992Z,53.77
2018-08-08T03:15:02.036Z,53.79
2018-08-08T03:15:41.042Z,54.05
2018-08-08T03:16:41.070Z,54.15
2018-08-08T03:17:41.097Z,54.15
2018-08-08T03:18:41.120Z,54.44
2018-08-08T03:19:41.182Z,54.25
2018-08-08T03:21:02.190Z,54.53
2018-08-08T03:21:41.198Z,54.25
2018-08-08T03:22:41.222Z,54.35
2018-08-08T03:23:41.247Z,54.35
2018-08-08T03:24:41.273Z,54.44
2018-08-08T03:25:41.298Z,54.53
2018-08-08T03:27:02.341Z,54.53
2018-08-08T03:27:41.349Z,55.11
2018-08-08T03:28:41.374Z,55.11
2018-08-08T03:29:41.400Z,54.83
2018-08-08T03:30:41.428Z,55.21
2018-08-08T03:31:41.450Z,54.93
2018-08-08T03:33:02.496Z,55.31
2018-08-08T03:33:41.503Z,55.11
2018-08-08T03:34:41.529Z,55.02
2018-08-08T03:35:41.552Z,55.21
2018-08-08T03:36:41.577Z,55.11
2018-08-08T03:37:41.602Z,55.70
2018-08-08T03:39:02.645Z,55.41
2018-08-08T03:39:41.653Z,55.31
2018-08-08T03:40:41.678Z,55.31
2018-08-08T03:41:41.703Z,55.79
2018-08-08T03:42:41.733Z,55.21
2018-08-08T03:43:41.755Z,56.09
2018-08-08T03:45:02.799Z,55.99
2018-08-08T03:45:41.805Z,56.09
2018-08-08T03:46:41.831Z,55.89
2018-08-08T03:47:41.855Z,55.89
2018-08-08T03:48:41.882Z,55.60
2018-08-08T03:49:41.910Z,55.99
2018-08-08T03:51:02.946Z,55.70
2018-08-08T03:51:41.956Z,55.79
2018-08-08T03:52:41.984Z,55.89
2018-08-08T03:53:42.015Z,55.87
2018-08-08T03:54:42.032Z,55.99
2018-08-08T03:55:42.057Z,55.70
2018-08-08T03:57:03.108Z,55.96
2018-08-08T03:57:42.121Z,56.18
2018-08-08T03:58:42.134Z,55.96
2018-08-08T03:59:42.160Z,56.67
2018-08-08T04:00:42.185Z,56.73
2018-08-08T04:01:42.212Z,56.37
2018-08-08T04:03:03.253Z,56.73
2018-08-08T04:03:42.259Z,56.83
2018-08-08T04:04:42.284Z,56.63
2018-08-08T04:05:42.310Z,56.47
2018-08-08T04:06:42.335Z,56.47
2018-08-08T04:07:42.360Z,56.28
2018-08-08T04:09:03.407Z,56.73
2018-08-08T04:09:42.411Z,56.54
2018-08-08T04:10:42.436Z,56.57
2018-08-08T04:11:42.461Z,56.86
2018-08-08T04:12:42.488Z,56.95
2018-08-08T04:13:42.511Z,56.67
2018-08-08T04:15:03.586Z,57.05
2018-08-08T04:15:42.563Z,56.95
2018-08-08T04:16:42.587Z,57.15
2018-08-08T04:17:42.612Z,57.05
2018-08-08T04:18:42.639Z,56.95
2018-08-08T04:19:42.663Z,56.67
2018-08-08T04:21:03.708Z,56.86
2018-08-08T04:21:42.714Z,56.86
2018-08-08T04:22:42.748Z,57.05
2018-08-08T04:23:42.767Z,57.05
2018-08-08T04:24:42.789Z,57.05
2018-08-08T04:25:42.815Z,57.15
2018-08-08T04:27:03.858Z,57.15
2018-08-08T04:27:42.866Z,57.15
2018-08-08T04:28:42.890Z,57.15
2018-08-08T04:29:42.914Z,57.15
2018-08-08T04:30:42.940Z,57.34
2018-08-08T04:31:42.965Z,57.44
2018-08-08T04:33:04.007Z,57.73
2018-08-08T04:33:43.017Z,57.44
2018-08-08T04:34:43.042Z,57.63
2018-08-08T04:35:43.066Z,57.63
2018-08-08T04:36:43.092Z,57.34
2018-08-08T04:37:43.117Z,57.44
2018-08-08T04:39:04.159Z,57.44
2018-08-08T04:39:43.168Z,57.24
2018-08-08T04:40:43.193Z,57.54
2018-08-08T04:41:43.218Z,57.54
2018-08-08T04:42:43.243Z,57.82
2018-08-08T04:43:43.270Z,57.54
2018-08-08T04:45:04.341Z,57.54
2018-08-08T04:45:43.327Z,57.54
2018-08-08T04:46:43.348Z,58.12
2018-08-08T04:47:43.369Z,57.82
2018-08-08T04:48:43.396Z,57.82
2018-08-08T04:49:43.420Z,57.92
2018-08-08T04:51:04.463Z,58.21
2018-08-08T04:51:43.470Z,57.92
2018-08-08T04:52:43.495Z,58.02
2018-08-08T04:53:43.523Z,58.31
2018-08-08T04:54:43.547Z,58.80
2018-08-08T04:55:43.573Z,58.70
2018-08-08T04:57:04.613Z,58.70
2018-08-08T04:57:43.623Z,58.60
2018-08-08T04:58:43.648Z,58.60
2018-08-08T04:59:43.672Z,58.50
2018-08-08T05:00:43.698Z,58.89
2018-08-08T05:01:43.724Z,58.60
2018-08-08T05:03:04.769Z,59.08
2018-08-08T05:03:43.773Z,58.70
2018-08-08T05:04:43.799Z,58.70
2018-08-08T05:05:43.824Z,59.38
2018-08-08T05:06:43.850Z,59.08
2018-08-08T05:07:43.875Z,59.08
2018-08-08T05:09:04.918Z,59.08
2018-08-08T05:09:43.925Z,59.08
2018-08-08T05:10:43.952Z,58.98
2018-08-08T05:11:43.977Z,59.18
2018-08-08T05:12:44.000Z,59.28
2018-08-08T05:13:44.027Z,59.56
2018-08-08T05:15:05.071Z,59.56
2018-08-08T05:15:44.076Z,59.76
2018-08-08T05:16:44.106Z,59.66
2018-08-08T05:17:44.138Z,59.86
2018-08-08T05:18:44.152Z,59.76
2018-08-08T05:19:44.178Z,60.14
2018-08-08T05:21:05.219Z,60.05
2018-08-08T05:21:44.230Z,59.95
2018-08-08T05:22:44.253Z,60.05
2018-08-08T05:23:44.280Z,60.05
2018-08-08T05:24:44.305Z,60.05
2018-08-08T05:25:44.330Z,60.34
2018-08-08T05:27:05.371Z,60.34
2018-08-08T05:27:44.379Z,60.44
2018-08-08T05:28:44.404Z,60.24
2018-08-08T05:29:44.430Z,60.24
2018-08-08T05:30:44.506Z,60.24
2018-08-08T05:31:44.488Z,60.44
2018-08-08T05:33:05.523Z,60.24
2018-08-08T05:33:44.533Z,59.95
2018-08-08T05:34:44.557Z,60.34
2018-08-08T05:35:44.582Z,60.34
2018-08-08T05:36:44.606Z,60.82
2018-08-08T05:37:44.633Z,60.63
2018-08-08T05:39:05.674Z,60.63
2018-08-08T05:39:44.680Z,60.72
2018-08-08T05:40:44.706Z,60.92
2018-08-08T05:41:44.732Z,60.72
2018-08-08T05:42:44.759Z,60.34
2018-08-08T05:43:44.782Z,60.34
2018-08-08T05:45:05.842Z,60.34
2018-08-08T05:45:44.833Z,60.82
2018-08-08T05:46:44.860Z,60.72
2018-08-08T05:47:44.886Z,60.72
2018-08-08T05:48:44.908Z,61.21
2018-08-08T05:49:44.938Z,61.30
2018-08-08T05:51:05.977Z,60.82
2018-08-08T05:51:44.983Z,61.21
2018-08-08T05:52:45.012Z,61.30
2018-08-08T05:53:45.034Z,61.11
2018-08-08T05:54:45.063Z,61.11
2018-08-08T05:55:45.085Z,61.02
2018-08-08T05:57:06.128Z,61.02
2018-08-08T05:57:45.137Z,61.02
2018-08-08T05:58:45.162Z,60.82
2018-08-08T05:59:45.186Z,61.50
2018-08-08T06:00:45.211Z,61.11
2018-08-08T06:01:45.238Z,61.02
2018-08-08T06:03:06.282Z,61.50
2018-08-08T06:03:45.287Z,61.50
2018-08-08T06:04:45.313Z,61.40
2018-08-08T06:05:45.338Z,61.30
2018-08-08T06:06:45.365Z,61.30
2018-08-08T06:07:45.388Z,61.40
2018-08-08T06:09:06.433Z,61.50
2018-08-08T06:09:45.437Z,60.82
2018-08-08T06:10:45.468Z,61.50
2018-08-08T06:11:45.488Z,61.21
2018-08-08T06:12:45.513Z,61.02
2018-08-08T06:13:45.539Z,61.21
2018-08-08T06:15:06.601Z,61.69
2018-08-08T06:15:45.592Z,61.21
2018-08-08T06:16:45.615Z,61.50
2018-08-08T06:17:45.644Z,61.98
2018-08-08T06:18:45.666Z,62.27
2018-08-08T06:19:45.728Z,62.47
2018-08-08T06:21:06.733Z,62.56
2018-08-08T06:21:45.741Z,62.18
2018-08-08T06:22:45.771Z,62.40
2018-08-08T06:23:45.791Z,62.21
2018-08-08T06:24:45.827Z,62.11
2018-08-08T06:25:45.846Z,62.11
2018-08-08T06:27:06.889Z,61.33
2018-08-08T06:27:45.892Z,61.24
2018-08-08T06:28:45.918Z,60.66
2018-08-08T06:29:45.943Z,60.08
2018-08-08T06:30:45.970Z,59.89
2018-08-08T06:31:46.000Z,59.98
2018-08-08T06:33:07.041Z,60.17
2018-08-08T06:33:46.055Z,59.69
2018-08-08T06:34:46.074Z,59.69
2018-08-08T06:35:46.121Z,59.31
2018-08-08T06:36:46.127Z,59.01
2018-08-08T06:37:46.149Z,59.21
2018-08-08T06:39:07.192Z,59.59
2018-08-08T06:39:46.199Z,59.01
2018-08-08T06:40:46.221Z,59.40
2018-08-08T06:41:46.248Z,59.50
2018-08-08T06:42:46.273Z,59.69
2018-08-08T06:43:46.312Z,59.50
2018-08-08T06:45:07.345Z,59.89
2018-08-08T06:45:46.351Z,59.79
2018-08-08T06:46:46.380Z,59.69
2018-08-08T06:47:46.402Z,59.40
2018-08-08T06:48:46.424Z,59.98
2018-08-08T06:49:46.451Z,59.69
2018-08-08T06:51:07.494Z,59.69
2018-08-08T06:51:46.500Z,60.01
2018-08-08T06:52:46.526Z,60.17
2018-08-08T06:53:46.552Z,59.89
2018-08-08T06:54:46.582Z,59.89
2018-08-08T06:55:46.602Z,59.98
2018-08-08T06:57:07.645Z,60.08
2018-08-08T06:57:46.654Z,59.89
2018-08-08T06:58:46.680Z,59.69
2018-08-08T06:59:46.708Z,59.98
2018-08-08T07:00:46.728Z,60.37
2018-08-08T07:01:46.757Z,60.17
2018-08-08T07:03:07.799Z,60.08
2018-08-08T07:03:46.808Z,60.75
2018-08-08T07:04:46.831Z,61.05
2018-08-08T07:05:46.863Z,60.95
2018-08-08T07:06:46.884Z,60.75
2018-08-08T07:07:46.926Z,60.88
2018-08-08T07:09:07.954Z,60.85
2018-08-08T07:09:46.959Z,60.88
2018-08-08T07:10:46.998Z,60.98
2018-08-08T07:11:47.010Z,60.85
2018-08-08T07:12:47.036Z,60.85
2018-08-08T07:13:47.064Z,60.40
2018-08-08T07:15:08.104Z,60.78
2018-08-08T07:15:47.112Z,60.85
2018-08-08T07:16:47.137Z,60.40
2018-08-08T07:17:47.164Z,60.88
2018-08-08T07:18:47.189Z,60.98
2018-08-08T07:19:47.253Z,60.98
2018-08-08T07:21:08.262Z,60.98
2018-08-08T07:21:47.265Z,60.88
2018-08-08T07:22:47.292Z,61.08
2018-08-08T07:23:47.316Z,61.36
2018-08-08T07:24:47.345Z,60.98
2018-08-08T07:25:47.367Z,60.75
2018-08-08T07:27:08.411Z,60.40
2018-08-08T07:27:47.418Z,60.57
2018-08-08T07:28:47.447Z,60.78
2018-08-08T07:29:47.473Z,60.95
2018-08-08T07:30:47.496Z,60.85
2018-08-08T07:31:47.527Z,60.78
2018-08-08T07:33:08.564Z,60.78
2018-08-08T07:33:47.572Z,61.18
2018-08-08T07:34:47.598Z,61.05
2018-08-08T07:35:47.626Z,61.08
2018-08-08T07:36:47.650Z,61.18
2018-08-08T07:37:47.676Z,61.18
2018-08-08T07:39:08.721Z,61.24
2018-08-08T07:39:47.738Z,61.08
2018-08-08T07:40:47.753Z,61.27
2018-08-08T07:41:47.776Z,61.36
2018-08-08T07:42:47.806Z,61.85
2018-08-08T07:43:47.828Z,61.56
2018-08-08T07:45:08.873Z,61.56
2018-08-08T07:45:47.915Z,61.36
2018-08-08T07:46:47.906Z,61.56
2018-08-08T07:47:47.930Z,61.36
2018-08-08T07:48:47.963Z,61.36
2018-08-08T07:49:47.985Z,61.85
2018-08-08T07:51:09.025Z,61.66
2018-08-08T07:51:48.033Z,61.95
2018-08-08T07:52:48.059Z,61.95
2018-08-08T07:53:48.085Z,62.24
2018-08-08T07:54:48.110Z,62.04
2018-08-08T07:55:48.135Z,61.95
2018-08-08T07:57:09.180Z,61.85
2018-08-08T07:57:48.235Z,62.24
2018-08-08T07:58:48.213Z,61.85
2018-08-08T07:59:48.243Z,61.46
2018-08-08T08:00:48.263Z,61.59
2018-08-08T08:01:48.293Z,61.40
2018-08-08T08:03:09.336Z,61.79
2018-08-08T08:03:48.343Z,61.69
2018-08-08T08:04:48.373Z,61.11
2018-08-08T08:05:48.404Z,61.11
2018-08-08T08:06:48.420Z,60.91
2018-08-08T08:07:48.447Z,60.72
2018-08-08T08:09:09.486Z,60.72
2018-08-08T08:09:48.497Z,60.72
2018-08-08T08:10:48.525Z,60.52
2018-08-08T08:11:48.547Z,60.24
2018-08-08T08:12:48.636Z,60.43
2018-08-08T08:13:48.604Z,60.24
2018-08-08T08:15:09.644Z,60.17
2018-08-08T08:15:48.652Z,60.07
2018-08-08T08:16:48.679Z,59.97
2018-08-08T08:17:48.702Z,59.61
2018-08-08T08:18:48.731Z,59.52
2018-08-08T08:19:48.754Z,59.33
2018-08-08T08:21:09.804Z,59.13
2018-08-08T08:21:48.808Z,58.84
2018-08-08T08:22:48.832Z,58.45
2018-08-08T08:23:48.864Z,58.39
2018-08-08T08:24:48.887Z,58.58
2018-08-08T08:25:48.916Z,58.19
2018-08-08T08:27:09.959Z,57.70
2018-08-08T08:27:48.965Z,57.80
2018-08-08T08:28:49.837Z,58.00
2018-08-08T08:29:49.079Z,57.54
2018-08-08T08:30:49.042Z,57.61
2018-08-08T08:31:49.068Z,57.80
2018-08-08T08:33:10.113Z,57.22
2018-08-08T08:33:49.125Z,57.34
2018-08-08T08:34:49.147Z,57.44
2018-08-08T08:35:49.236Z,57.34
2018-08-08T08:36:49.258Z,57.34
2018-08-08T08:37:49.228Z,57.25
2018-08-08T08:39:10.274Z,57.25
2018-08-08T08:39:49.278Z,57.25
2018-08-08T08:40:50.956Z,56.96
2018-08-08T08:41:49.427Z,57.15
2018-08-08T08:42:49.418Z,56.96
2018-08-08T08:43:49.467Z,57.03
2018-08-08T08:45:10.430Z,57.15
2018-08-08T08:45:49.476Z,56.76
2018-08-08T08:46:49.486Z,56.67
2018-08-08T08:47:49.510Z,56.57
2018-08-08T08:48:49.519Z,56.67
2018-08-08T08:49:49.572Z,56.86
2018-08-08T08:51:10.590Z,56.96
2018-08-08T08:51:49.598Z,57.34
2018-08-08T08:52:49.624Z,57.12
2018-08-08T08:53:49.652Z,57.15
2018-08-08T08:54:49.680Z,57.06
2018-08-08T08:55:49.703Z,57.34
2018-08-08T08:57:10.751Z,57.15
2018-08-08T08:57:49.758Z,57.15
2018-08-08T08:58:49.784Z,56.57
2018-08-08T08:59:49.814Z,56.67
2018-08-08T09:00:49.841Z,56.96
2018-08-08T09:01:49.902Z,56.67
2018-08-08T09:03:10.925Z,56.67
2018-08-08T09:03:49.946Z,56.86
2018-08-08T09:04:49.943Z,55.99
2018-08-08T09:05:49.977Z,55.89
2018-08-08T09:06:50.006Z,55.99
2018-08-08T09:07:50.027Z,55.99
2018-08-08T09:09:11.067Z,56.18
2018-08-08T09:09:50.080Z,55.99
2018-08-08T09:10:50.104Z,56.18
2018-08-08T09:11:50.132Z,55.99
2018-08-08T09:12:50.165Z,55.89
2018-08-08T09:13:50.283Z,55.99
2018-08-08T09:15:11.229Z,56.21
2018-08-08T09:15:50.238Z,55.92
2018-08-08T09:16:50.266Z,56.18
2018-08-08T09:17:50.301Z,56.11
2018-08-08T09:18:50.319Z,55.82
2018-08-08T09:19:50.347Z,56.30
2018-08-08T09:21:11.390Z,55.73
2018-08-08T09:21:50.437Z,56.40
2018-08-08T09:22:50.448Z,56.11
2018-08-08T09:23:50.462Z,56.21
2018-08-08T09:24:50.483Z,55.92
2018-08-08T09:25:50.508Z,56.21
2018-08-08T09:27:11.552Z,56.11
2018-08-08T09:27:50.563Z,55.92
2018-08-08T09:28:50.604Z,56.01
2018-08-08T09:29:50.616Z,56.40
2018-08-08T09:30:50.676Z,56.21
2018-08-08T09:31:50.673Z,56.11
2018-08-08T09:33:11.716Z,55.73
2018-08-08T09:33:50.727Z,56.11
2018-08-08T09:34:50.752Z,56.01
2018-08-08T09:35:50.787Z,55.73
2018-08-08T09:36:50.805Z,55.92
2018-08-08T09:37:50.873Z,55.63
2018-08-08T09:39:11.877Z,55.63
2018-08-08T09:39:50.924Z,55.24
2018-08-08T09:40:50.913Z,55.24
2018-08-08T09:41:50.944Z,55.53
2018-08-08T09:42:50.966Z,55.33
2018-08-08T09:43:50.998Z,55.33
2018-08-08T09:45:12.039Z,54.88
2018-08-08T09:45:51.054Z,55.07
2018-08-08T09:46:51.080Z,54.78
2018-08-08T09:47:51.105Z,54.39
2018-08-08T09:48:51.137Z,54.49
2018-08-08T09:49:51.160Z,54.49
2018-08-08T09:51:12.206Z,54.58
2018-08-08T09:51:51.226Z,54.29
2018-08-08T09:52:51.241Z,54.49
2018-08-08T09:53:51.267Z,54.68
2018-08-08T09:54:51.307Z,54.58
2018-08-08T09:55:51.321Z,54.68
2018-08-08T09:57:12.371Z,54.78
2018-08-08T09:57:51.376Z,54.68
2018-08-08T09:58:51.404Z,54.58
2018-08-08T09:59:51.431Z,54.58
2018-08-08T10:00:51.457Z,54.39
2018-08-08T10:01:51.487Z,54.49
2018-08-08T10:03:12.531Z,54.49
2018-08-08T10:03:51.623Z,54.49
2018-08-08T10:04:51.567Z,54.49
2018-08-08T10:05:51.595Z,54.49
2018-08-08T10:06:51.630Z,54.39
2018-08-08T10:07:51.649Z,54.49
2018-08-08T10:09:12.696Z,54.29
2018-08-08T10:09:51.705Z,54.20
2018-08-08T10:10:51.766Z,54.39
2018-08-08T10:11:51.761Z,54.29
2018-08-08T10:12:51.850Z,53.81
2018-08-08T10:13:51.812Z,53.91
2018-08-08T10:15:12.862Z,53.54
2018-08-08T10:15:51.871Z,53.16
2018-08-08T10:16:51.924Z,53.64
2018-08-08T10:17:51.986Z,53.25
2018-08-08T10:18:51.963Z,53.16
2018-08-08T10:19:51.982Z,52.96
2018-08-08T10:21:13.037Z,52.86
2018-08-08T10:21:52.054Z,52.57
2018-08-08T10:22:52.088Z,52.67
2018-08-08T10:23:52.087Z,52.57
2018-08-08T10:24:52.118Z,52.57
2018-08-08T10:25:52.141Z,52.57
2018-08-08T10:27:13.278Z,52.57
2018-08-08T10:27:52.199Z,52.57
2018-08-08T10:28:52.227Z,52.96
2018-08-08T10:29:52.361Z,52.94
2018-08-08T10:30:52.287Z,52.94
2018-08-08T10:31:52.309Z,53.03
2018-08-08T10:33:13.354Z,52.84
2018-08-08T10:33:52.363Z,52.94
2018-08-08T10:34:52.391Z,53.71
2018-08-08T10:35:52.421Z,53.13
2018-08-08T10:36:52.457Z,53.13
2018-08-08T10:37:52.477Z,53.03
2018-08-08T10:39:13.555Z,52.94
2018-08-08T10:39:52.528Z,53.71
2018-08-08T10:40:52.560Z,53.32
2018-08-08T10:41:52.583Z,53.52
2018-08-08T10:42:52.612Z,53.32
2018-08-08T10:43:52.639Z,53.13
2018-08-08T10:45:13.702Z,53.42
2018-08-08T10:45:52.693Z,53.42
2018-08-08T10:46:52.721Z,53.32
2018-08-08T10:47:52.750Z,53.13
2018-08-08T10:48:52.777Z,53.22
2018-08-08T10:49:52.847Z,53.13
2018-08-08T10:51:13.854Z,53.10
2018-08-08T10:51:52.861Z,53.49
2018-08-08T10:52:52.887Z,53.49
2018-08-08T10:53:52.914Z,53.69
2018-08-08T10:54:52.942Z,53.78
2018-08-08T10:55:53.067Z,54.07
2018-08-08T10:57:14.016Z,54.00
2018-08-08T10:57:53.026Z,54.17
2018-08-08T10:58:53.052Z,53.81
2018-08-08T10:59:53.079Z,53.88
2018-08-08T11:00:53.108Z,54.00
2018-08-08T11:01:53.135Z,53.81
2018-08-08T11:03:14.283Z,53.97
2018-08-08T11:03:53.191Z,53.52
2018-08-08T11:04:53.217Z,53.91
2018-08-08T11:05:53.249Z,54.07
2018-08-08T11:06:53.288Z,54.27
2018-08-08T11:07:53.298Z,54.20
2018-08-08T11:09:14.347Z,54.20
2018-08-08T11:09:53.354Z,54.20
2018-08-08T11:10:53.382Z,54.20
2018-08-08T11:11:53.409Z,54.39
2018-08-08T11:12:53.436Z,54.78
2018-08-08T11:13:53.470Z,54.20
2018-08-08T11:15:14.510Z,54.39
2018-08-08T11:15:53.519Z,54.68
2018-08-08T11:16:53.554Z,54.78
2018-08-08T11:17:53.578Z,54.68
2018-08-08T11:18:53.605Z,54.29
2018-08-08T11:19:53.683Z,54.29
2018-08-08T11:21:14.690Z,54.39
2018-08-08T11:21:53.688Z,54.52
2018-08-08T11:22:53.717Z,54.29
2018-08-08T11:23:53.774Z,54.71
2018-08-08T11:24:53.770Z,54.52
2018-08-08T11:25:53.796Z,54.42
2018-08-08T11:27:14.843Z,54.52
2018-08-08T11:27:53.851Z,54.61
2018-08-08T11:28:53.884Z,54.80
2018-08-08T11:29:53.905Z,54.71
2018-08-08T11:30:53.954Z,54.71
2018-08-08T11:31:53.964Z,54.80
2018-08-08T11:33:15.008Z,54.52
2018-08-08T11:33:54.017Z,54.61
2018-08-08T11:34:54.100Z,54.32
2018-08-08T11:35:54.084Z,54.42
2018-08-08T11:36:54.133Z,55.39
2018-08-08T11:37:54.127Z,54.80
2018-08-08T11:39:15.174Z,54.90
2018-08-08T11:39:54.182Z,54.61
2018-08-08T11:40:54.245Z,54.61
2018-08-08T11:41:54.240Z,54.61
2018-08-08T11:42:54.269Z,55.39
2018-08-08T11:43:54.295Z,55.10
2018-08-08T11:45:15.339Z,55.19
2018-08-08T11:45:54.350Z,55.19
2018-08-08T11:46:54.415Z,55.19
2018-08-08T11:47:54.405Z,55.10
2018-08-08T11:48:54.448Z,55.10
2018-08-08T11:49:54.461Z,54.90
2018-08-08T11:51:15.510Z,55.29
2018-08-08T11:51:54.521Z,54.90
2018-08-08T11:52:54.544Z,55.13
2018-08-08T11:53:54.581Z,55.39
2018-08-08T11:54:54.601Z,55.32
2018-08-08T11:55:54.632Z,55.41
2018-08-08T11:57:15.675Z,54.74
2018-08-08T11:57:54.684Z,54.93
2018-08-08T11:58:54.712Z,55.19
2018-08-08T11:59:54.739Z,55.41
2018-08-08T12:00:54.770Z,55.22
2018-08-08T12:01:54.855Z,55.32
2018-08-08T12:03:15.903Z,55.13
2018-08-08T12:03:54.853Z,54.93
2018-08-08T12:04:54.881Z,55.19
2018-08-08T12:05:54.915Z,55.29
2018-08-08T12:06:54.935Z,55.61
2018-08-08T12:07:54.963Z,55.41
2018-08-08T12:09:16.010Z,55.22
2018-08-08T12:09:55.026Z,55.61
2018-08-08T12:10:55.085Z,55.51
2018-08-08T12:11:55.074Z,55.32
2018-08-08T12:12:55.111Z,56.00
2018-08-08T12:13:55.142Z,55.22
2018-08-08T12:15:16.187Z,55.13
2018-08-08T12:15:55.191Z,55.13
2018-08-08T12:16:55.214Z,55.41
2018-08-08T12:17:55.337Z,55.13
2018-08-08T12:18:55.350Z,54.74
2018-08-08T12:19:55.402Z,54.74
2018-08-08T12:21:16.357Z,54.74
2018-08-08T12:21:55.410Z,54.74
2018-08-08T12:22:55.396Z,54.25
2018-08-08T12:23:55.417Z,54.35
2018-08-08T12:24:55.441Z,54.25
2018-08-08T12:25:55.550Z,54.44
2018-08-08T12:27:16.516Z,54.44
2018-08-08T12:27:55.526Z,54.54
2018-08-08T12:28:55.589Z,54.44
2018-08-08T12:29:55.580Z,54.64
2018-08-08T12:30:55.608Z,54.71
2018-08-08T12:31:55.634Z,54.83
2018-08-08T12:33:16.679Z,54.52
2018-08-08T12:33:55.690Z,55.39
2018-08-08T12:34:55.725Z,55.49
2018-08-08T12:35:55.745Z,55.39
2018-08-08T12:36:55.774Z,55.29
2018-08-08T12:37:55.799Z,55.29
2018-08-08T12:39:16.877Z,55.19
2018-08-08T12:39:55.857Z,54.90
2018-08-08T12:40:55.890Z,55.39
2018-08-08T12:41:55.916Z,55.19
2018-08-08T12:42:55.955Z,55.29
2018-08-08T12:43:56.080Z,55.39
2018-08-08T12:45:17.028Z,55.19
2018-08-08T12:45:56.024Z,55.10
2018-08-08T12:46:56.062Z,55.10
2018-08-08T12:47:56.089Z,55.39
2018-08-08T12:48:56.108Z,55.00
2018-08-08T12:49:56.136Z,55.03
2018-08-08T12:51:17.183Z,55.29
2018-08-08T12:51:56.194Z,55.39
2018-08-08T12:52:56.220Z,54.90